MSC Kia Ora — A8JG6 — position and weather

sailwx.info

Track history (hours):
 
Tides and Currents Weather Stations Pressure Air Temp Water Temp Dewpoint Dewpoint Depression Visibility Wind Speed Wind Dir Waves Ship Positions

MSC Kia Ora

Last reported at 2017-Sep-19 22:54 UTC. Time now 2017-Sep-20 18:23 UTC.
Position S 38°26' E 148°56'.

Length 148 m; draft 7.6 m.

Type: Ship (hazmat cat D). MMSI: 636017700.

Date/timePositionNaut miles runAvg speedWind from/ knotsBaromVisibWave heightAir tempDewpointWater temp
2017-Sep-19 22:54S 38°26' E 148°56'613.4
2017-Sep-19 22:27S 38°23' E 149°02'  
2017-Sep-15 01:27S 35°50' E 175°26'813.9
2017-Sep-15 00:55S 35°55' E 175°33'613.8
2017-Sep-15 00:30S 35°59' E 175°38'813.9
2017-Sep-14 23:55S 36°06' E 175°43'914.4
2017-Sep-14 23:17S 36°14' E 175°48'1514.4
2017-Sep-14 22:17S 36°27' E 175°56'6814.2
2017-Sep-14 17:27S 37°34' E 176°12'510.3
2017-Sep-14 17:01S 37°38' E 176°10'1 2.7
2017-Sep-14 16:28S 37°40' E 176°11'0 0.0
2017-Sep-14 15:57S 37°40' E 176°11'0 0.0
2017-Sep-14 15:27S 37°40' E 176°11'0 0.0
2017-Sep-14 14:58S 37°40' E 176°11'0 0.0
2017-Sep-14 14:27S 37°40' E 176°11'0 0.0
2017-Sep-14 13:57S 37°40' E 176°11'0 0.0
2017-Sep-14 13:27S 37°40' E 176°11'0 0.0
2017-Sep-14 12:57S 37°40' E 176°11'0 0.0
2017-Sep-14 12:27S 37°40' E 176°11'0 0.0
2017-Sep-14 11:57S 37°40' E 176°11'0 0.0
2017-Sep-14 11:27S 37°40' E 176°11'0 0.0
2017-Sep-14 10:52S 37°40' E 176°11'0 0.0
2017-Sep-14 10:28S 37°40' E 176°11'0 0.0
2017-Sep-14 09:57S 37°40' E 176°11'0 0.2
2017-Sep-14 09:31S 37°40' E 176°11'4 7.3
2017-Sep-14 09:00S 37°36' E 176°11'4 8.4
2017-Sep-14 08:30S 37°32' E 176°12'7911.8
2017-Sep-14 01:47S 36°24' E 175°21'610.0
2017-Sep-14 01:14S 36°26' E 175°15'210.3
2017-Sep-14 01:00S 36°27' E 175°12'510.3
2017-Sep-14 00:29S 36°30' E 175°07'510.3
2017-Sep-14 00:00S 36°33' E 175°02'510.1
2017-Sep-13 23:30S 36°37' E 174°58'510.1
2017-Sep-13 23:00S 36°41' E 174°54'510.3
2017-Sep-13 22:30S 36°45' E 174°50'5 9.9
2017-Sep-13 22:00S 36°50' E 174°50'2 4.3
2017-Sep-13 21:30S 36°51' E 174°47'0 0.0
2017-Sep-13 21:00S 36°51' E 174°47'0 0.0
2017-Sep-13 20:30S 36°51' E 174°47'0 0.0
2017-Sep-13 20:00S 36°51' E 174°47'0 0.0
2017-Sep-13 19:30S 36°51' E 174°47'0 0.0
2017-Sep-13 18:59S 36°51' E 174°47'0 0.0
2017-Sep-13 18:30S 36°51' E 174°47'0 0.0
2017-Sep-13 18:00S 36°51' E 174°47'0 0.0
2017-Sep-13 17:29S 36°51' E 174°47'0 0.0
2017-Sep-13 17:00S 36°51' E 174°47'0 0.0
2017-Sep-13 16:30S 36°51' E 174°47'0 0.0
2017-Sep-13 15:57S 36°51' E 174°47'0 0.0
2017-Sep-13 15:27S 36°51' E 174°47'0 0.0
2017-Sep-13 15:00S 36°51' E 174°47'0 0.0
2017-Sep-13 14:30S 36°51' E 174°47'0 0.0
2017-Sep-13 14:00S 36°51' E 174°47'0 0.0
2017-Sep-13 13:30S 36°51' E 174°47'0 0.0
2017-Sep-13 13:00S 36°51' E 174°47'0 0.0
2017-Sep-13 12:30S 36°51' E 174°47'0 0.0
2017-Sep-13 12:00S 36°51' E 174°47'0 0.0
2017-Sep-13 11:30S 36°51' E 174°47'0 0.0
2017-Sep-13 11:00S 36°51' E 174°47'0 0.0
2017-Sep-13 10:30S 36°51' E 174°47'0 0.0
2017-Sep-13 10:00S 36°51' E 174°47'0 0.0
2017-Sep-13 09:30S 36°51' E 174°47'0 0.0
2017-Sep-13 08:58S 36°51' E 174°47'0 0.0
2017-Sep-13 08:28S 36°51' E 174°47'0 0.0
2017-Sep-13 07:58S 36°51' E 174°47'0 0.0
2017-Sep-13 07:22S 36°51' E 174°47'0 0.0
2017-Sep-13 06:52S 36°51' E 174°47'0 0.0
2017-Sep-13 06:28S 36°51' E 174°47'0 0.1
2017-Sep-13 06:00S 36°51' E 174°47'2 4.6
2017-Sep-13 05:31S 36°50' E 174°50'510.4
2017-Sep-13 05:00S 36°45' E 174°50'4 7.7
2017-Sep-13 04:30S 36°42' E 174°53'4 8.3
2017-Sep-13 04:00S 36°38' E 174°56'5 9.1
2017-Sep-13 03:30S 36°35' E 174°60'5 9.9
2017-Sep-13 03:00S 36°30' E 175°01'510.2
2017-Sep-13 02:30S 36°25' E 175°01'510.1
2017-Sep-13 02:00S 36°20' E 175°01'5 9.7
2017-Sep-13 01:30S 36°15' E 175°01'610.7
2017-Sep-13 00:59S 36°09' E 174°60'3812.7
2017-Sep-12 22:01S 35°32' E 174°60'  
2017-Sep-10 02:13S 22°33' E 166°20'314.4
2017-Sep-10 02:01S 22°30' E 166°18'714.2
2017-Sep-10 01:30S 22°24' E 166°15'611.6
2017-Sep-10 01:00S 22°19' E 166°18'713.5
2017-Sep-10 00:30S 22°15' E 166°23'3 5.3
2017-Sep-09 23:58S 22°16' E 166°26'0 0.0
2017-Sep-09 23:28S 22°16' E 166°26'0 0.0
2017-Sep-09 22:58S 22°16' E 166°26'  
Track history (hours):
 
Tides and Currents Weather Stations Pressure Air Temp Water Temp Dewpoint Dewpoint Depression Visibility Wind Speed Wind Dir Waves Ship Positions

MSC Kia Ora

Last reported at 2017-Sep-19 22:54 UTC. Time now 2017-Sep-20 18:23 UTC.
Position S 38°26' E 148°56'.

Length 148 m; draft 7.6 m.

Type: Ship (hazmat cat D). MMSI: 636017700.

Date/timePositionNaut miles runAvg speedWind from/ knotsBaromVisibWave heightAir tempDewpointWater temp
2017-Sep-19 22:54S 38°26' E 148°56'613.4
2017-Sep-19 22:27S 38°23' E 149°02'  
2017-Sep-15 01:27S 35°50' E 175°26'813.9
2017-Sep-15 00:55S 35°55' E 175°33'613.8
2017-Sep-15 00:30S 35°59' E 175°38'813.9
2017-Sep-14 23:55S 36°06' E 175°43'914.4
2017-Sep-14 23:17S 36°14' E 175°48'1514.4
2017-Sep-14 22:17S 36°27' E 175°56'6814.2
2017-Sep-14 17:27S 37°34' E 176°12'510.3
2017-Sep-14 17:01S 37°38' E 176°10'1 2.7
2017-Sep-14 16:28S 37°40' E 176°11'0 0.0
2017-Sep-14 15:57S 37°40' E 176°11'0 0.0
2017-Sep-14 15:27S 37°40' E 176°11'0 0.0
2017-Sep-14 14:58S 37°40' E 176°11'0 0.0
2017-Sep-14 14:27S 37°40' E 176°11'0 0.0
2017-Sep-14 13:57S 37°40' E 176°11'0 0.0
2017-Sep-14 13:27S 37°40' E 176°11'0 0.0
2017-Sep-14 12:57S 37°40' E 176°11'0 0.0
2017-Sep-14 12:27S 37°40' E 176°11'0 0.0
2017-Sep-14 11:57S 37°40' E 176°11'0 0.0
2017-Sep-14 11:27S 37°40' E 176°11'0 0.0
2017-Sep-14 10:52S 37°40' E 176°11'0 0.0
2017-Sep-14 10:28S 37°40' E 176°11'0 0.0
2017-Sep-14 09:57S 37°40' E 176°11'0 0.2
2017-Sep-14 09:31S 37°40' E 176°11'4 7.3
2017-Sep-14 09:00S 37°36' E 176°11'4 8.4
2017-Sep-14 08:30S 37°32' E 176°12'7911.8
2017-Sep-14 01:47S 36°24' E 175°21'610.0
2017-Sep-14 01:14S 36°26' E 175°15'210.3
2017-Sep-14 01:00S 36°27' E 175°12'510.3
2017-Sep-14 00:29S 36°30' E 175°07'510.3
2017-Sep-14 00:00S 36°33' E 175°02'510.1
2017-Sep-13 23:30S 36°37' E 174°58'510.1
2017-Sep-13 23:00S 36°41' E 174°54'510.3
2017-Sep-13 22:30S 36°45' E 174°50'5 9.9
2017-Sep-13 22:00S 36°50' E 174°50'2 4.3
2017-Sep-13 21:30S 36°51' E 174°47'0 0.0
2017-Sep-13 21:00S 36°51' E 174°47'0 0.0
2017-Sep-13 20:30S 36°51' E 174°47'0 0.0
2017-Sep-13 20:00S 36°51' E 174°47'0 0.0
2017-Sep-13 19:30S 36°51' E 174°47'0 0.0
2017-Sep-13 18:59S 36°51' E 174°47'0 0.0
2017-Sep-13 18:30S 36°51' E 174°47'0 0.0
2017-Sep-13 18:00S 36°51' E 174°47'0 0.0
2017-Sep-13 17:29S 36°51' E 174°47'0 0.0
2017-Sep-13 17:00S 36°51' E 174°47'0 0.0
2017-Sep-13 16:30S 36°51' E 174°47'0 0.0
2017-Sep-13 15:57S 36°51' E 174°47'0 0.0
2017-Sep-13 15:27S 36°51' E 174°47'0 0.0
2017-Sep-13 15:00S 36°51' E 174°47'0 0.0
2017-Sep-13 14:30S 36°51' E 174°47'0 0.0
2017-Sep-13 14:00S 36°51' E 174°47'0 0.0
2017-Sep-13 13:30S 36°51' E 174°47'0 0.0
2017-Sep-13 13:00S 36°51' E 174°47'0 0.0
2017-Sep-13 12:30S 36°51' E 174°47'0 0.0
2017-Sep-13 12:00S 36°51' E 174°47'0 0.0
2017-Sep-13 11:30S 36°51' E 174°47'0 0.0
2017-Sep-13 11:00S 36°51' E 174°47'0 0.0
2017-Sep-13 10:30S 36°51' E 174°47'0 0.0
2017-Sep-13 10:00S 36°51' E 174°47'0 0.0
2017-Sep-13 09:30S 36°51' E 174°47'0 0.0
2017-Sep-13 08:58S 36°51' E 174°47'0 0.0
2017-Sep-13 08:28S 36°51' E 174°47'0 0.0
2017-Sep-13 07:58S 36°51' E 174°47'0 0.0
2017-Sep-13 07:22S 36°51' E 174°47'0 0.0
2017-Sep-13 06:52S 36°51' E 174°47'0 0.0
2017-Sep-13 06:28S 36°51' E 174°47'0 0.1
2017-Sep-13 06:00S 36°51' E 174°47'2 4.6
2017-Sep-13 05:31S 36°50' E 174°50'510.4
2017-Sep-13 05:00S 36°45' E 174°50'4 7.7
2017-Sep-13 04:30S 36°42' E 174°53'4 8.3
2017-Sep-13 04:00S 36°38' E 174°56'5 9.1
2017-Sep-13 03:30S 36°35' E 174°60'5 9.9
2017-Sep-13 03:00S 36°30' E 175°01'510.2
2017-Sep-13 02:30S 36°25' E 175°01'510.1
2017-Sep-13 02:00S 36°20' E 175°01'5 9.7
2017-Sep-13 01:30S 36°15' E 175°01'610.7
2017-Sep-13 00:59S 36°09' E 174°60'3812.7
2017-Sep-12 22:01S 35°32' E 174°60'  
2017-Sep-10 02:13S 22°33' E 166°20'314.4
2017-Sep-10 02:01S 22°30' E 166°18'714.2
2017-Sep-10 01:30S 22°24' E 166°15'611.6
2017-Sep-10 01:00S 22°19' E 166°18'713.5
2017-Sep-10 00:30S 22°15' E 166°23'3 5.3
2017-Sep-09 23:58S 22°16' E 166°26'0 0.0
2017-Sep-09 23:28S 22°16' E 166°26'0 0.0
2017-Sep-09 22:58S 22°16' E 166°26'  

Dump ship's entire track history